Star Alliance - PAGK Airport Info

    PAGK (Gulkana Airport)  Login to use Map Selector

  ALLIANCE AIRCRAFT AT THIS AIRPORT
Tail Number Aircraft ModelFlightsRunwayRangeCapacityPaxSale
N-564PJDeHavilland DHC-6 Twin Otter 01200ft643nm2250Kg19No
  RUNWAY INFORMATION    |    Airport Elevation : 1586ft    |    LAT : 62.1548996  /  LON : -145.4570007
Runway Number 15 / 33 Runway Width 100' Runway Length 5001'
Lighted Runway No Runway StatusOpen Runway Surface Asphalt
  CLOSE ALTERNATE AIRPORTS
ICAODistanceAirport NameLongest RWRW SurfaceMAP
58A17NMTolsona Lake Seaplane Base4000FTWater
13S31NMLake Louise Seaplane Base5000FTWater
PAXK52NMPaxson Airport3000FTGravel
PAVD65NMValdez Pioneer Field6508FTAsphalt
1Z984NMEllamar Seaplane Base8000FTWater
15Z84NMMcCarthy No 23501FTGravel
7KA85NMTatitlek Airport8000FTGravel
TSG93NMTanacross Airport5100FTAsphalt
CZN96NMChisana Airport3000FTDirt
CKU97NMCordova Municipal Airport8000FTGravel
PACV100NMMerle K (Mudhole) Smith Airport7500FTAsphalt
PAAQ108NMPalmer Municipal Airport6008FTAsphalt
  AIRPORT WEATHER
5°F | -15°C
Temperature
66%
Humidity
30.33" | 1032mb
Pressure
10sm
Visibility
VFR
Flight Rules
CLR
Initial Clouds
FAIR
Conditions
Wind Info
11/27/22 18:53Z
Updated

PAGK 271853Z AUTO 31007KT 10SM CLR M15/M20 A3033 RMK AO2 SLP322 T11501200 TSNO
  AIRPORT CHARTS
  AIRPORT FREQUENCIES
NameFrequency
CLEARANCE122.200
MULTICOM122.900
  PILOT ENTERED AIRPORT INFORMATION SEE ALL PILOT ENTERED AIRPORT INFO

Powered by Virtual Airlines Manager